sensor_id;sensor_type;location;lat;lon;timestamp;P1;durP1;ratioP1;P2;durP2;ratioP2
62058;SDS011;48017;51.064;7.014;2022-11-20T00:02:13;11.52;;;6.38;;
62058;SDS011;48017;51.064;7.014;2022-11-20T00:04:39;10.43;;;6.03;;
62058;SDS011;48017;51.064;7.014;2022-11-20T00:07:04;11.38;;;5.72;;
62058;SDS011;48017;51.064;7.014;2022-11-20T00:09:30;10.63;;;5.80;;
62058;SDS011;48017;51.064;7.014;2022-11-20T00:11:55;10.90;;;5.85;;
62058;SDS011;48017;51.064;7.014;2022-11-20T00:14:20;9.18;;;5.95;;
62058;SDS011;48017;51.064;7.014;2022-11-20T00:16:46;9.32;;;5.25;;
62058;SDS011;48017;51.064;7.014;2022-11-20T00:19:11;8.02;;;5.45;;
62058;SDS011;48017;51.064;7.014;2022-11-20T00:21:36;11.02;;;6.25;;
62058;SDS011;48017;51.064;7.014;2022-11-20T00:24:01;11.10;;;6.40;;
62058;SDS011;48017;51.064;7.014;2022-11-20T00:26:27;10.15;;;6.03;;
62058;SDS011;48017;51.064;7.014;2022-11-20T00:28:54;8.90;;;5.82;;
62058;SDS011;48017;51.064;7.014;2022-11-20T00:31:24;9.85;;;5.05;;
62058;SDS011;48017;51.064;7.014;2022-11-20T00:33:49;10.95;;;5.68;;
62058;SDS011;48017;51.064;7.014;2022-11-20T00:36:19;11.52;;;6.10;;
62058;SDS011;48017;51.064;7.014;2022-11-20T00:38:46;12.13;;;6.63;;
62058;SDS011;48017;51.064;7.014;2022-11-20T00:41:13;10.27;;;5.80;;
62058;SDS011;48017;51.064;7.014;2022-11-20T00:43:39;10.60;;;5.63;;
62058;SDS011;48017;51.064;7.014;2022-11-20T00:46:15;12.23;;;5.90;;
62058;SDS011;48017;51.064;7.014;2022-11-20T00:48:43;12.63;;;6.47;;
62058;SDS011;48017;51.064;7.014;2022-11-20T00:51:09;9.13;;;5.35;;
62058;SDS011;48017;51.064;7.014;2022-11-20T00:53:36;10.20;;;6.35;;
62058;SDS011;48017;51.064;7.014;2022-11-20T00:56:02;9.73;;;5.28;;
62058;SDS011;48017;51.064;7.014;2022-11-20T01:03:27;7.72;;;5.05;;
62058;SDS011;48017;51.064;7.014;2022-11-20T01:05:58;9.57;;;5.07;;
62058;SDS011;48017;51.064;7.014;2022-11-20T01:08:24;8.93;;;5.35;;
62058;SDS011;48017;51.064;7.014;2022-11-20T01:10:50;11.25;;;5.45;;
62058;SDS011;48017;51.064;7.014;2022-11-20T01:13:15;10.20;;;5.47;;
62058;SDS011;48017;51.064;7.014;2022-11-20T01:16:42;10.82;;;5.88;;
62058;SDS011;48017;51.064;7.014;2022-11-20T01:18:49;8.75;;;4.82;;
62058;SDS011;48017;51.064;7.014;2022-11-20T01:21:17;9.52;;;5.72;;
62058;SDS011;48017;51.064;7.014;2022-11-20T01:23:45;9.05;;;5.38;;
62058;SDS011;48017;51.064;7.014;2022-11-20T01:26:21;10.25;;;5.07;;
62058;SDS011;48017;51.064;7.014;2022-11-20T01:28:49;10.55;;;6.30;;
62058;SDS011;48017;51.064;7.014;2022-11-20T01:33:43;9.27;;;5.35;;
62058;SDS011;48017;51.064;7.014;2022-11-20T01:36:09;9.80;;;5.47;;
62058;SDS011;48017;51.064;7.014;2022-11-20T01:38:36;9.32;;;4.85;;
62058;SDS011;48017;51.064;7.014;2022-11-20T01:41:02;8.88;;;5.10;;
62058;SDS011;48017;51.064;7.014;2022-11-20T01:43:28;7.85;;;4.95;;
62058;SDS011;48017;51.064;7.014;2022-11-20T01:46:12;9.73;;;6.10;;
62058;SDS011;48017;51.064;7.014;2022-11-20T01:51:40;7.68;;;4.40;;
62058;SDS011;48017;51.064;7.014;2022-11-20T01:54:10;9.38;;;5.70;;
62058;SDS011;48017;51.064;7.014;2022-11-20T01:56:41;9.73;;;5.82;;
62058;SDS011;48017;51.064;7.014;2022-11-20T01:59:09;9.95;;;5.00;;
62058;SDS011;48017;51.064;7.014;2022-11-20T02:01:38;10.27;;;6.03;;
62058;SDS011;48017;51.064;7.014;2022-11-20T02:04:04;10.02;;;5.45;;
62058;SDS011;48017;51.064;7.014;2022-11-20T02:06:35;8.68;;;5.07;;
62058;SDS011;48017;51.064;7.014;2022-11-20T02:09:05;10.50;;;5.25;;
62058;SDS011;48017;51.064;7.014;2022-11-20T02:11:30;9.25;;;5.03;;
62058;SDS011;48017;51.064;7.014;2022-11-20T02:13:56;8.93;;;4.90;;
62058;SDS011;48017;51.064;7.014;2022-11-20T02:18:47;11.00;;;6.00;;
62058;SDS011;48017;51.064;7.014;2022-11-20T02:24:11;9.27;;;5.40;;
62058;SDS011;48017;51.064;7.014;2022-11-20T02:26:50;7.85;;;4.95;;
62058;SDS011;48017;51.064;7.014;2022-11-20T02:29:23;8.40;;;4.78;;
62058;SDS011;48017;51.064;7.014;2022-11-20T02:31:52;8.90;;;4.80;;
62058;SDS011;48017;51.064;7.014;2022-11-20T02:34:19;9.93;;;5.28;;
62058;SDS011;48017;51.064;7.014;2022-11-20T02:36:45;7.07;;;4.78;;
62058;SDS011;48017;51.064;7.014;2022-11-20T02:39:11;9.13;;;5.75;;
62058;SDS011;48017;51.064;7.014;2022-11-20T02:41:41;11.38;;;5.95;;
62058;SDS011;48017;51.064;7.014;2022-11-20T02:44:07;9.25;;;5.32;;
62058;SDS011;48017;51.064;7.014;2022-11-20T02:46:32;10.10;;;5.63;;
62058;SDS011;48017;51.064;7.014;2022-11-20T02:48:59;10.90;;;6.18;;
62058;SDS011;48017;51.064;7.014;2022-11-20T02:51:26;10.40;;;5.90;;
62058;SDS011;48017;51.064;7.014;2022-11-20T02:53:51;9.48;;;5.70;;
62058;SDS011;48017;51.064;7.014;2022-11-20T02:56:17;9.27;;;5.35;;
62058;SDS011;48017;51.064;7.014;2022-11-20T02:58:42;10.95;;;5.72;;
62058;SDS011;48017;51.064;7.014;2022-11-20T03:01:07;11.88;;;5.57;;
62058;SDS011;48017;51.064;7.014;2022-11-20T03:03:33;9.52;;;5.05;;
62058;SDS011;48017;51.064;7.014;2022-11-20T03:05:59;9.43;;;6.05;;
62058;SDS011;48017;51.064;7.014;2022-11-20T03:08:24;11.35;;;5.40;;
62058;SDS011;48017;51.064;7.014;2022-11-20T03:10:50;8.27;;;5.03;;
62058;SDS011;48017;51.064;7.014;2022-11-20T03:13:15;9.35;;;5.65;;
62058;SDS011;48017;51.064;7.014;2022-11-20T03:15:41;10.00;;;5.35;;
62058;SDS011;48017;51.064;7.014;2022-11-20T03:18:06;7.47;;;4.95;;
62058;SDS011;48017;51.064;7.014;2022-11-20T03:20:32;6.95;;;4.32;;
62058;SDS011;48017;51.064;7.014;2022-11-20T03:22:58;8.18;;;5.20;;
62058;SDS011;48017;51.064;7.014;2022-11-20T03:25:24;9.20;;;4.93;;
62058;SDS011;48017;51.064;7.014;2022-11-20T03:27:49;11.25;;;6.20;;
62058;SDS011;48017;51.064;7.014;2022-11-20T03:30:15;9.27;;;5.38;;
62058;SDS011;48017;51.064;7.014;2022-11-20T03:32:40;9.57;;;5.38;;
62058;SDS011;48017;51.064;7.014;2022-11-20T03:35:06;9.55;;;5.75;;
62058;SDS011;48017;51.064;7.014;2022-11-20T03:37:31;9.63;;;5.20;;
62058;SDS011;48017;51.064;7.014;2022-11-20T03:39:57;8.23;;;5.30;;
62058;SDS011;48017;51.064;7.014;2022-11-20T03:42:22;10.07;;;5.20;;
62058;SDS011;48017;51.064;7.014;2022-11-20T03:45:06;10.20;;;6.28;;
62058;SDS011;48017;51.064;7.014;2022-11-20T03:47:32;8.70;;;5.00;;
62058;SDS011;48017;51.064;7.014;2022-11-20T03:49:57;9.73;;;5.70;;
62058;SDS011;48017;51.064;7.014;2022-11-20T03:52:23;11.20;;;5.90;;
62058;SDS011;48017;51.064;7.014;2022-11-20T03:54:48;8.65;;;5.22;;
62058;SDS011;48017;51.064;7.014;2022-11-20T03:57:13;10.48;;;5.78;;
62058;SDS011;48017;51.064;7.014;2022-11-20T03:59:39;9.70;;;5.40;;
62058;SDS011;48017;51.064;7.014;2022-11-20T04:02:04;8.80;;;5.40;;
62058;SDS011;48017;51.064;7.014;2022-11-20T04:04:29;8.00;;;5.20;;
62058;SDS011;48017;51.064;7.014;2022-11-20T04:06:55;12.18;;;6.72;;
62058;SDS011;48017;51.064;7.014;2022-11-20T04:09:20;8.15;;;4.88;;
62058;SDS011;48017;51.064;7.014;2022-11-20T04:11:45;9.02;;;5.47;;
62058;SDS011;48017;51.064;7.014;2022-11-20T04:14:12;10.10;;;6.43;;
62058;SDS011;48017;51.064;7.014;2022-11-20T04:19:05;8.07;;;5.13;;
62058;SDS011;48017;51.064;7.014;2022-11-20T04:21:33;9.98;;;5.47;;
62058;SDS011;48017;51.064;7.014;2022-11-20T04:23:59;9.23;;;5.28;;
62058;SDS011;48017;51.064;7.014;2022-11-20T04:26:25;9.15;;;5.20;;
62058;SDS011;48017;51.064;7.014;2022-11-20T04:28:51;8.73;;;5.57;;
62058;SDS011;48017;51.064;7.014;2022-11-20T04:31:18;8.93;;;5.10;;
62058;SDS011;48017;51.064;7.014;2022-11-20T04:33:47;9.52;;;5.57;;
62058;SDS011;48017;51.064;7.014;2022-11-20T04:36:17;11.27;;;5.85;;
62058;SDS011;48017;51.064;7.014;2022-11-20T04:38:54;8.20;;;4.85;;
62058;SDS011;48017;51.064;7.014;2022-11-20T04:41:21;9.68;;;5.35;;
62058;SDS011;48017;51.064;7.014;2022-11-20T04:43:48;9.35;;;5.35;;
62058;SDS011;48017;51.064;7.014;2022-11-20T04:46:16;9.02;;;5.32;;
62058;SDS011;48017;51.064;7.014;2022-11-20T04:48:41;8.10;;;5.07;;
62058;SDS011;48017;51.064;7.014;2022-11-20T04:51:07;9.45;;;5.45;;
62058;SDS011;48017;51.064;7.014;2022-11-20T04:53:32;8.90;;;5.55;;
62058;SDS011;48017;51.064;7.014;2022-11-20T04:56:05;8.63;;;5.18;;
62058;SDS011;48017;51.064;7.014;2022-11-20T04:58:33;10.73;;;5.53;;
62058;SDS011;48017;51.064;7.014;2022-11-20T05:01:06;10.27;;;5.57;;
62058;SDS011;48017;51.064;7.014;2022-11-20T05:03:34;9.60;;;6.00;;
62058;SDS011;48017;51.064;7.014;2022-11-20T05:06:00;11.07;;;5.47;;
62058;SDS011;48017;51.064;7.014;2022-11-20T05:08:26;7.95;;;4.80;;
62058;SDS011;48017;51.064;7.014;2022-11-20T05:10:52;13.20;;;6.55;;
62058;SDS011;48017;51.064;7.014;2022-11-20T05:13:17;9.18;;;5.15;;
62058;SDS011;48017;51.064;7.014;2022-11-20T05:15:43;9.80;;;5.40;;
62058;SDS011;48017;51.064;7.014;2022-11-20T05:18:08;9.68;;;6.03;;
62058;SDS011;48017;51.064;7.014;2022-11-20T05:20:33;10.48;;;5.68;;
62058;SDS011;48017;51.064;7.014;2022-11-20T05:23:01;9.70;;;5.60;;
62058;SDS011;48017;51.064;7.014;2022-11-20T05:25:26;12.23;;;6.47;;
62058;SDS011;48017;51.064;7.014;2022-11-20T05:27:51;9.30;;;5.78;;
62058;SDS011;48017;51.064;7.014;2022-11-20T05:30:18;7.65;;;5.03;;
62058;SDS011;48017;51.064;7.014;2022-11-20T05:32:43;9.27;;;6.13;;
62058;SDS011;48017;51.064;7.014;2022-11-20T05:35:08;10.32;;;5.38;;
62058;SDS011;48017;51.064;7.014;2022-11-20T05:37:34;8.98;;;5.65;;
62058;SDS011;48017;51.064;7.014;2022-11-20T05:39:59;9.68;;;5.32;;
62058;SDS011;48017;51.064;7.014;2022-11-20T05:42:24;8.77;;;5.45;;
62058;SDS011;48017;51.064;7.014;2022-11-20T05:44:56;10.90;;;5.80;;
62058;SDS011;48017;51.064;7.014;2022-11-20T05:47:26;7.55;;;5.10;;
62058;SDS011;48017;51.064;7.014;2022-11-20T05:49:52;9.50;;;5.68;;
62058;SDS011;48017;51.064;7.014;2022-11-20T05:52:18;10.95;;;5.50;;
62058;SDS011;48017;51.064;7.014;2022-11-20T05:54:44;9.55;;;5.18;;
62058;SDS011;48017;51.064;7.014;2022-11-20T05:57:10;11.02;;;6.03;;
62058;SDS011;48017;51.064;7.014;2022-11-20T05:59:35;9.13;;;5.85;;
62058;SDS011;48017;51.064;7.014;2022-11-20T06:02:00;9.60;;;5.30;;
62058;SDS011;48017;51.064;7.014;2022-11-20T06:04:26;10.27;;;5.90;;
62058;SDS011;48017;51.064;7.014;2022-11-20T06:06:51;9.40;;;5.15;;
62058;SDS011;48017;51.064;7.014;2022-11-20T06:09:16;10.40;;;5.30;;
62058;SDS011;48017;51.064;7.014;2022-11-20T06:11:41;9.35;;;5.63;;
62058;SDS011;48017;51.064;7.014;2022-11-20T06:14:07;11.30;;;5.72;;
62058;SDS011;48017;51.064;7.014;2022-11-20T06:16:32;9.30;;;5.43;;
62058;SDS011;48017;51.064;7.014;2022-11-20T06:18:58;8.43;;;5.50;;
62058;SDS011;48017;51.064;7.014;2022-11-20T06:21:23;10.60;;;5.40;;
62058;SDS011;48017;51.064;7.014;2022-11-20T06:23:49;12.07;;;5.65;;
62058;SDS011;48017;51.064;7.014;2022-11-20T06:26:16;9.80;;;5.78;;
62058;SDS011;48017;51.064;7.014;2022-11-20T06:31:10;12.45;;;5.93;;
62058;SDS011;48017;51.064;7.014;2022-11-20T06:36:02;7.90;;;4.28;;
62058;SDS011;48017;51.064;7.014;2022-11-20T06:38:29;9.13;;;5.00;;
62058;SDS011;48017;51.064;7.014;2022-11-20T06:40:54;10.00;;;5.47;;
62058;SDS011;48017;51.064;7.014;2022-11-20T06:43:20;8.05;;;5.25;;
62058;SDS011;48017;51.064;7.014;2022-11-20T06:45:46;10.15;;;5.68;;
62058;SDS011;48017;51.064;7.014;2022-11-20T06:48:16;9.25;;;4.90;;
62058;SDS011;48017;51.064;7.014;2022-11-20T06:50:41;9.23;;;5.07;;
62058;SDS011;48017;51.064;7.014;2022-11-20T06:53:06;10.02;;;5.57;;
62058;SDS011;48017;51.064;7.014;2022-11-20T06:55:32;10.98;;;6.68;;
62058;SDS011;48017;51.064;7.014;2022-11-20T06:57:57;9.18;;;5.88;;
62058;SDS011;48017;51.064;7.014;2022-11-20T07:00:22;12.88;;;4.80;;
62058;SDS011;48017;51.064;7.014;2022-11-20T07:02:48;13.35;;;5.53;;
62058;SDS011;48017;51.064;7.014;2022-11-20T07:05:13;11.10;;;5.97;;
62058;SDS011;48017;51.064;7.014;2022-11-20T07:07:39;8.73;;;5.55;;
62058;SDS011;48017;51.064;7.014;2022-11-20T07:10:04;10.63;;;5.20;;
62058;SDS011;48017;51.064;7.014;2022-11-20T07:12:30;12.23;;;6.03;;
62058;SDS011;48017;51.064;7.014;2022-11-20T07:14:56;11.30;;;5.82;;
62058;SDS011;48017;51.064;7.014;2022-11-20T07:17:21;10.60;;;5.78;;
62058;SDS011;48017;51.064;7.014;2022-11-20T07:19:47;9.23;;;5.05;;
62058;SDS011;48017;51.064;7.014;2022-11-20T07:22:12;11.32;;;6.25;;
62058;SDS011;48017;51.064;7.014;2022-11-20T07:24:38;9.77;;;5.57;;
62058;SDS011;48017;51.064;7.014;2022-11-20T07:27:04;12.70;;;5.68;;
62058;SDS011;48017;51.064;7.014;2022-11-20T07:29:29;9.60;;;6.15;;
62058;SDS011;48017;51.064;7.014;2022-11-20T07:31:55;10.75;;;6.25;;
62058;SDS011;48017;51.064;7.014;2022-11-20T07:34:21;11.75;;;6.45;;
62058;SDS011;48017;51.064;7.014;2022-11-20T07:36:47;9.70;;;5.38;;
62058;SDS011;48017;51.064;7.014;2022-11-20T07:39:12;9.43;;;5.60;;
62058;SDS011;48017;51.064;7.014;2022-11-20T07:41:37;10.98;;;6.15;;
62058;SDS011;48017;51.064;7.014;2022-11-20T07:44:03;13.50;;;6.43;;
62058;SDS011;48017;51.064;7.014;2022-11-20T07:46:28;8.90;;;5.30;;
62058;SDS011;48017;51.064;7.014;2022-11-20T07:48:53;12.65;;;6.55;;
62058;SDS011;48017;51.064;7.014;2022-11-20T07:51:19;8.63;;;5.15;;
62058;SDS011;48017;51.064;7.014;2022-11-20T07:53:44;9.38;;;5.70;;
62058;SDS011;48017;51.064;7.014;2022-11-20T07:56:09;10.25;;;5.57;;
62058;SDS011;48017;51.064;7.014;2022-11-20T07:58:35;9.82;;;6.00;;
62058;SDS011;48017;51.064;7.014;2022-11-20T08:01:04;12.07;;;5.90;;
62058;SDS011;48017;51.064;7.014;2022-11-20T08:03:30;10.52;;;5.50;;
62058;SDS011;48017;51.064;7.014;2022-11-20T08:05:58;12.57;;;6.22;;
62058;SDS011;48017;51.064;7.014;2022-11-20T08:08:25;11.50;;;5.97;;
62058;SDS011;48017;51.064;7.014;2022-11-20T08:10:51;12.35;;;6.25;;
62058;SDS011;48017;51.064;7.014;2022-11-20T08:13:16;13.13;;;6.45;;
62058;SDS011;48017;51.064;7.014;2022-11-20T08:16:00;11.90;;;6.55;;
62058;SDS011;48017;51.064;7.014;2022-11-20T08:18:25;13.15;;;6.78;;
62058;SDS011;48017;51.064;7.014;2022-11-20T08:20:51;12.82;;;7.28;;
62058;SDS011;48017;51.064;7.014;2022-11-20T08:23:16;16.73;;;7.53;;
62058;SDS011;48017;51.064;7.014;2022-11-20T08:25:41;12.77;;;6.18;;
62058;SDS011;48017;51.064;7.014;2022-11-20T08:28:08;13.57;;;7.18;;
62058;SDS011;48017;51.064;7.014;2022-11-20T08:30:35;11.07;;;6.23;;
62058;SDS011;48017;51.064;7.014;2022-11-20T08:33:02;13.93;;;7.20;;
62058;SDS011;48017;51.064;7.014;2022-11-20T08:35:36;12.68;;;7.20;;
62058;SDS011;48017;51.064;7.014;2022-11-20T08:38:02;11.60;;;7.00;;
62058;SDS011;48017;51.064;7.014;2022-11-20T08:40:29;12.75;;;6.93;;
62058;SDS011;48017;51.064;7.014;2022-11-20T08:42:55;14.10;;;6.30;;
62058;SDS011;48017;51.064;7.014;2022-11-20T08:45:20;11.93;;;6.65;;
62058;SDS011;48017;51.064;7.014;2022-11-20T08:47:45;13.40;;;6.72;;
62058;SDS011;48017;51.064;7.014;2022-11-20T08:50:12;12.10;;;7.32;;
62058;SDS011;48017;51.064;7.014;2022-11-20T08:52:39;11.40;;;6.70;;
62058;SDS011;48017;51.064;7.014;2022-11-20T08:55:04;12.35;;;6.63;;
62058;SDS011;48017;51.064;7.014;2022-11-20T08:57:36;14.23;;;7.80;;
62058;SDS011;48017;51.064;7.014;2022-11-20T09:00:03;11.73;;;7.10;;
62058;SDS011;48017;51.064;7.014;2022-11-20T09:02:31;14.60;;;7.28;;
62058;SDS011;48017;51.064;7.014;2022-11-20T09:04:57;10.55;;;6.55;;
62058;SDS011;48017;51.064;7.014;2022-11-20T09:07:22;14.27;;;7.50;;
62058;SDS011;48017;51.064;7.014;2022-11-20T09:09:48;11.43;;;6.70;;
62058;SDS011;48017;51.064;7.014;2022-11-20T09:12:13;12.00;;;7.00;;
62058;SDS011;48017;51.064;7.014;2022-11-20T09:14:38;13.27;;;7.10;;
62058;SDS011;48017;51.064;7.014;2022-11-20T09:17:04;10.85;;;6.55;;
62058;SDS011;48017;51.064;7.014;2022-11-20T09:19:29;12.57;;;7.35;;
62058;SDS011;48017;51.064;7.014;2022-11-20T09:21:55;13.68;;;6.82;;
62058;SDS011;48017;51.064;7.014;2022-11-20T09:24:20;11.90;;;6.47;;
62058;SDS011;48017;51.064;7.014;2022-11-20T09:26:46;11.85;;;6.55;;
62058;SDS011;48017;51.064;7.014;2022-11-20T09:29:11;12.15;;;7.13;;
62058;SDS011;48017;51.064;7.014;2022-11-20T09:31:37;14.13;;;7.40;;
62058;SDS011;48017;51.064;7.014;2022-11-20T09:34:02;12.57;;;7.22;;
62058;SDS011;48017;51.064;7.014;2022-11-20T09:36:27;11.88;;;6.57;;
62058;SDS011;48017;51.064;7.014;2022-11-20T09:38:53;12.65;;;6.45;;
62058;SDS011;48017;51.064;7.014;2022-11-20T09:47:08;10.50;;;6.20;;
62058;SDS011;48017;51.064;7.014;2022-11-20T09:49:45;9.95;;;6.25;;
62058;SDS011;48017;51.064;7.014;2022-11-20T09:55:22;10.85;;;6.30;;
62058;SDS011;48017;51.064;7.014;2022-11-20T09:57:48;11.35;;;6.22;;
62058;SDS011;48017;51.064;7.014;2022-11-20T10:00:16;12.23;;;6.28;;
62058;SDS011;48017;51.064;7.014;2022-11-20T10:03:26;12.40;;;6.82;;
62058;SDS011;48017;51.064;7.014;2022-11-20T10:05:40;10.30;;;5.50;;
62058;SDS011;48017;51.064;7.014;2022-11-20T10:10:52;8.40;;;5.30;;
62058;SDS011;48017;51.064;7.014;2022-11-20T10:13:42;7.95;;;4.82;;
62058;SDS011;48017;51.064;7.014;2022-11-20T10:21:52;9.10;;;5.30;;
62058;SDS011;48017;51.064;7.014;2022-11-20T10:24:44;11.52;;;6.13;;
62058;SDS011;48017;51.064;7.014;2022-11-20T10:32:40;8.55;;;5.45;;
62058;SDS011;48017;51.064;7.014;2022-11-20T10:35:16;11.43;;;6.65;;
62058;SDS011;48017;51.064;7.014;2022-11-20T10:37:48;11.98;;;5.68;;
62058;SDS011;48017;51.064;7.014;2022-11-20T10:43:13;14.07;;;6.43;;
62058;SDS011;48017;51.064;7.014;2022-11-20T10:48:41;12.50;;;6.45;;
62058;SDS011;48017;51.064;7.014;2022-11-20T10:56:51;13.30;;;6.50;;
62058;SDS011;48017;51.064;7.014;2022-11-20T11:01:59;11.77;;;7.13;;
62058;SDS011;48017;51.064;7.014;2022-11-20T11:07:12;9.55;;;5.78;;
62058;SDS011;48017;51.064;7.014;2022-11-20T11:09:44;14.18;;;6.43;;
62058;SDS011;48017;51.064;7.014;2022-11-20T11:12:13;13.48;;;6.45;;
62058;SDS011;48017;51.064;7.014;2022-11-20T11:14:46;15.55;;;6.35;;
62058;SDS011;48017;51.064;7.014;2022-11-20T11:17:18;11.90;;;6.63;;
62058;SDS011;48017;51.064;7.014;2022-11-20T11:19:56;12.95;;;6.47;;
62058;SDS011;48017;51.064;7.014;2022-11-20T11:22:22;11.38;;;5.28;;
62058;SDS011;48017;51.064;7.014;2022-11-20T11:24:51;11.15;;;6.25;;
62058;SDS011;48017;51.064;7.014;2022-11-20T11:27:18;10.25;;;6.55;;
62058;SDS011;48017;51.064;7.014;2022-11-20T11:29:43;11.45;;;5.32;;
62058;SDS011;48017;51.064;7.014;2022-11-20T11:32:13;17.77;;;7.13;;
62058;SDS011;48017;51.064;7.014;2022-11-20T11:34:40;12.98;;;6.32;;
62058;SDS011;48017;51.064;7.014;2022-11-20T11:37:09;11.85;;;6.50;;
62058;SDS011;48017;51.064;7.014;2022-11-20T11:39:43;11.60;;;6.32;;
62058;SDS011;48017;51.064;7.014;2022-11-20T11:42:12;9.38;;;5.53;;
62058;SDS011;48017;51.064;7.014;2022-11-20T11:44:49;11.15;;;6.85;;
62058;SDS011;48017;51.064;7.014;2022-11-20T11:52:41;12.80;;;6.18;;
62058;SDS011;48017;51.064;7.014;2022-11-20T11:56:01;11.85;;;6.53;;
62058;SDS011;48017;51.064;7.014;2022-11-20T11:58:11;14.05;;;6.82;;
62058;SDS011;48017;51.064;7.014;2022-11-20T12:00:39;13.10;;;7.32;;
62058;SDS011;48017;51.064;7.014;2022-11-20T12:03:14;12.45;;;7.13;;
62058;SDS011;48017;51.064;7.014;2022-11-20T12:05:51;13.90;;;7.73;;
62058;SDS011;48017;51.064;7.014;2022-11-20T12:11:11;11.90;;;6.68;;
62058;SDS011;48017;51.064;7.014;2022-11-20T12:16:13;13.00;;;6.65;;
62058;SDS011;48017;51.064;7.014;2022-11-20T12:18:41;12.77;;;7.28;;
62058;SDS011;48017;51.064;7.014;2022-11-20T12:24:04;16.85;;;7.95;;
62058;SDS011;48017;51.064;7.014;2022-11-20T12:43:21;12.50;;;7.35;;
62058;SDS011;48017;51.064;7.014;2022-11-20T12:59:25;11.32;;;6.60;;
62058;SDS011;48017;51.064;7.014;2022-11-20T13:07:27;10.32;;;6.53;;
62058;SDS011;48017;51.064;7.014;2022-11-20T13:09:54;11.38;;;7.07;;
62058;SDS011;48017;51.064;7.014;2022-11-20T13:12:24;12.15;;;6.80;;
62058;SDS011;48017;51.064;7.014;2022-11-20T13:18:00;15.48;;;7.63;;
62058;SDS011;48017;51.064;7.014;2022-11-20T13:20:27;13.00;;;7.22;;
62058;SDS011;48017;51.064;7.014;2022-11-20T13:22:55;13.40;;;7.55;;
62058;SDS011;48017;51.064;7.014;2022-11-20T13:27:55;10.77;;;6.60;;
62058;SDS011;48017;51.064;7.014;2022-11-20T13:30:23;12.40;;;6.65;;
62058;SDS011;48017;51.064;7.014;2022-11-20T13:33:25;12.55;;;7.45;;
62058;SDS011;48017;51.064;7.014;2022-11-20T13:35:55;12.00;;;6.88;;
62058;SDS011;48017;51.064;7.014;2022-11-20T13:38:22;14.77;;;7.30;;
62058;SDS011;48017;51.064;7.014;2022-11-20T13:40:52;11.27;;;6.78;;
62058;SDS011;48017;51.064;7.014;2022-11-20T13:43:19;13.63;;;7.82;;
62058;SDS011;48017;51.064;7.014;2022-11-20T13:46:02;12.95;;;7.15;;
62058;SDS011;48017;51.064;7.014;2022-11-20T13:48:30;14.85;;;7.25;;
62058;SDS011;48017;51.064;7.014;2022-11-20T13:51:07;16.35;;;8.32;;
62058;SDS011;48017;51.064;7.014;2022-11-20T13:56:37;14.45;;;7.47;;
62058;SDS011;48017;51.064;7.014;2022-11-20T14:02:17;12.40;;;6.50;;
62058;SDS011;48017;51.064;7.014;2022-11-20T14:07:11;15.67;;;7.23;;
62058;SDS011;48017;51.064;7.014;2022-11-20T14:09:37;12.73;;;6.80;;
62058;SDS011;48017;51.064;7.014;2022-11-20T14:12:03;17.02;;;7.18;;
62058;SDS011;48017;51.064;7.014;2022-11-20T14:14:46;15.77;;;6.80;;
62058;SDS011;48017;51.064;7.014;2022-11-20T14:17:20;15.25;;;6.80;;
62058;SDS011;48017;51.064;7.014;2022-11-20T14:19:48;15.40;;;7.70;;
62058;SDS011;48017;51.064;7.014;2022-11-20T14:22:22;14.35;;;7.50;;
62058;SDS011;48017;51.064;7.014;2022-11-20T14:24:59;18.20;;;7.45;;
62058;SDS011;48017;51.064;7.014;2022-11-20T14:27:27;13.32;;;7.60;;
62058;SDS011;48017;51.064;7.014;2022-11-20T14:29:52;14.85;;;6.53;;
62058;SDS011;48017;51.064;7.014;2022-11-20T14:32:18;12.07;;;6.55;;
62058;SDS011;48017;51.064;7.014;2022-11-20T14:34:47;12.57;;;6.20;;
62058;SDS011;48017;51.064;7.014;2022-11-20T14:37:21;10.45;;;6.32;;
62058;SDS011;48017;51.064;7.014;2022-11-20T14:39:50;13.80;;;7.30;;
62058;SDS011;48017;51.064;7.014;2022-11-20T14:42:21;11.05;;;6.45;;
62058;SDS011;48017;51.064;7.014;2022-11-20T14:44:52;11.90;;;6.97;;
62058;SDS011;48017;51.064;7.014;2022-11-20T14:47:21;12.23;;;6.97;;
62058;SDS011;48017;51.064;7.014;2022-11-20T14:49:50;14.55;;;6.80;;
62058;SDS011;48017;51.064;7.014;2022-11-20T14:52:19;12.35;;;6.43;;
62058;SDS011;48017;51.064;7.014;2022-11-20T14:54:51;11.45;;;6.80;;
62058;SDS011;48017;51.064;7.014;2022-11-20T14:57:22;15.60;;;7.70;;
62058;SDS011;48017;51.064;7.014;2022-11-20T15:02:40;12.88;;;6.28;;
62058;SDS011;48017;51.064;7.014;2022-11-20T15:05:06;12.10;;;6.40;;
62058;SDS011;48017;51.064;7.014;2022-11-20T15:07:33;11.43;;;6.50;;
62058;SDS011;48017;51.064;7.014;2022-11-20T15:12:26;12.65;;;6.43;;
62058;SDS011;48017;51.064;7.014;2022-11-20T15:14:52;12.57;;;6.18;;
62058;SDS011;48017;51.064;7.014;2022-11-20T15:17:17;12.63;;;6.15;;
62058;SDS011;48017;51.064;7.014;2022-11-20T15:19:43;13.30;;;7.30;;
62058;SDS011;48017;51.064;7.014;2022-11-20T15:22:11;10.23;;;5.75;;
62058;SDS011;48017;51.064;7.014;2022-11-20T15:24:41;13.18;;;7.18;;
62058;SDS011;48017;51.064;7.014;2022-11-20T15:27:07;12.05;;;6.78;;
62058;SDS011;48017;51.064;7.014;2022-11-20T15:29:33;12.50;;;7.28;;
62058;SDS011;48017;51.064;7.014;2022-11-20T15:31:58;15.18;;;7.35;;
62058;SDS011;48017;51.064;7.014;2022-11-20T15:34:26;13.73;;;6.85;;
62058;SDS011;48017;51.064;7.014;2022-11-20T15:36:51;12.65;;;7.28;;
62058;SDS011;48017;51.064;7.014;2022-11-20T15:39:18;11.88;;;6.13;;
62058;SDS011;48017;51.064;7.014;2022-11-20T15:41:43;11.90;;;6.85;;
62058;SDS011;48017;51.064;7.014;2022-11-20T15:44:09;15.55;;;6.68;;
62058;SDS011;48017;51.064;7.014;2022-11-20T15:46:38;12.77;;;6.38;;
62058;SDS011;48017;51.064;7.014;2022-11-20T15:49:09;13.95;;;7.38;;
62058;SDS011;48017;51.064;7.014;2022-11-20T15:51:38;14.23;;;6.60;;
62058;SDS011;48017;51.064;7.014;2022-11-20T15:54:09;12.02;;;6.55;;
62058;SDS011;48017;51.064;7.014;2022-11-20T15:56:36;12.93;;;7.68;;
62058;SDS011;48017;51.064;7.014;2022-11-20T15:59:02;10.93;;;6.60;;
62058;SDS011;48017;51.064;7.014;2022-11-20T16:01:27;13.02;;;7.45;;
62058;SDS011;48017;51.064;7.014;2022-11-20T16:03:53;13.55;;;7.03;;
62058;SDS011;48017;51.064;7.014;2022-11-20T16:06:18;12.65;;;7.00;;
62058;SDS011;48017;51.064;7.014;2022-11-20T16:08:44;12.68;;;6.60;;
62058;SDS011;48017;51.064;7.014;2022-11-20T16:11:14;13.65;;;7.03;;
62058;SDS011;48017;51.064;7.014;2022-11-20T16:13:41;11.27;;;6.22;;
62058;SDS011;48017;51.064;7.014;2022-11-20T16:16:28;10.43;;;5.88;;
62058;SDS011;48017;51.064;7.014;2022-11-20T16:19:00;10.93;;;5.97;;
62058;SDS011;48017;51.064;7.014;2022-11-20T16:21:26;15.48;;;7.20;;
62058;SDS011;48017;51.064;7.014;2022-11-20T16:23:56;14.07;;;6.47;;
62058;SDS011;48017;51.064;7.014;2022-11-20T16:26:25;13.15;;;6.22;;
62058;SDS011;48017;51.064;7.014;2022-11-20T16:28:51;15.55;;;6.82;;
62058;SDS011;48017;51.064;7.014;2022-11-20T16:31:17;13.50;;;6.75;;
62058;SDS011;48017;51.064;7.014;2022-11-20T16:33:48;14.32;;;7.00;;
62058;SDS011;48017;51.064;7.014;2022-11-20T16:36:18;12.05;;;6.80;;
62058;SDS011;48017;51.064;7.014;2022-11-20T16:38:44;12.13;;;6.78;;
62058;SDS011;48017;51.064;7.014;2022-11-20T16:41:10;12.85;;;6.82;;
62058;SDS011;48017;51.064;7.014;2022-11-20T16:46:14;11.45;;;5.53;;
62058;SDS011;48017;51.064;7.014;2022-11-20T16:48:40;10.70;;;5.75;;
62058;SDS011;48017;51.064;7.014;2022-11-20T16:51:07;11.43;;;6.47;;
62058;SDS011;48017;51.064;7.014;2022-11-20T16:53:34;10.32;;;5.88;;
62058;SDS011;48017;51.064;7.014;2022-11-20T16:56:12;10.02;;;6.53;;
62058;SDS011;48017;51.064;7.014;2022-11-20T16:58:43;10.38;;;6.60;;